createdAt,value
2022-10-18T00:00:15.990Z,81.13
2022-10-18T00:05:18.953Z,81.13
2022-10-18T00:10:21.776Z,80.97
2022-10-18T00:15:25.974Z,80.96
2022-10-18T00:20:28.694Z,80.81
2022-10-18T00:25:31.462Z,80.70
2022-10-18T00:30:35.608Z,80.42
2022-10-18T00:35:38.292Z,80.67
2022-10-18T00:40:40.995Z,80.54
2022-10-18T00:45:45.263Z,80.37
2022-10-18T00:50:48.684Z,80.34
2022-10-18T00:55:51.961Z,80.37
2022-10-18T01:00:56.116Z,80.28
2022-10-18T01:05:58.944Z,80.41
2022-10-18T01:11:14.526Z,80.09
2022-10-18T01:16:23.129Z,79.99
2022-10-18T01:21:37.097Z,79.99
2022-10-18T01:26:54.026Z,80.11
2022-10-18T01:32:00.111Z,80.14
2022-10-18T01:37:04.520Z,79.73
2022-10-18T01:42:08.922Z,79.72
2022-10-18T01:47:14.604Z,79.81
2022-10-18T01:52:17.736Z,79.65
2022-10-18T01:57:25.529Z,79.77
2022-10-18T02:02:40.246Z,79.54
2022-10-18T02:07:55.327Z,79.44
2022-10-18T02:13:09.524Z,79.43
2022-10-18T02:18:16.407Z,79.66
2022-10-18T02:23:22.614Z,79.47
2022-10-18T02:28:25.547Z,79.22
2022-10-18T02:33:34.276Z,79.33
2022-10-18T02:38:37.659Z,79.12
2022-10-18T02:43:40.344Z,79.13
2022-10-18T02:48:44.414Z,79.11
2022-10-18T02:53:47.127Z,79.02
2022-10-18T02:58:49.810Z,78.85
2022-10-18T03:03:53.855Z,78.96
2022-10-18T03:08:56.620Z,78.98
2022-10-18T03:13:59.409Z,78.78
2022-10-18T03:19:03.533Z,78.97
2022-10-18T03:24:07.393Z,78.67
2022-10-18T03:29:10.439Z,78.80
2022-10-18T03:34:15.695Z,78.58
2022-10-18T03:39:18.395Z,78.61
2022-10-18T03:44:21.169Z,78.60
2022-10-18T03:49:25.299Z,78.55
2022-10-18T03:54:27.986Z,78.36
2022-10-18T03:59:30.725Z,78.33
2022-10-18T04:04:34.821Z,78.45
2022-10-18T04:09:37.598Z,78.29
2022-10-18T04:14:40.389Z,78.27
2022-10-18T04:19:44.488Z,78.40
2022-10-18T04:24:47.210Z,78.24
2022-10-18T04:29:50.016Z,78.26
2022-10-18T04:34:54.140Z,78.29
2022-10-18T04:39:56.874Z,78.06
2022-10-18T04:44:59.689Z,77.87
2022-10-18T04:50:03.802Z,78.18
2022-10-18T04:55:07.488Z,78.24
2022-10-18T05:00:10.881Z,78.01
2022-10-18T05:05:14.965Z,77.94
2022-10-18T05:10:17.791Z,78.00
2022-10-18T05:15:20.543Z,77.86
2022-10-18T05:20:24.716Z,78.06
2022-10-18T05:25:27.460Z,77.95
2022-10-18T05:30:30.189Z,77.76
2022-10-18T05:35:34.604Z,77.88
2022-10-18T05:40:39.295Z,77.65
2022-10-18T05:45:48.468Z,77.96
2022-10-18T05:50:52.540Z,77.83
2022-10-18T05:55:55.295Z,78.03
2022-10-18T06:01:00.764Z,77.98
2022-10-18T06:06:07.101Z,77.74
2022-10-18T06:11:11.011Z,77.94
2022-10-18T06:16:14.972Z,77.76
2022-10-18T06:21:19.395Z,77.91
2022-10-18T06:26:22.625Z,77.99
2022-10-18T06:31:25.340Z,77.74
2022-10-18T06:36:29.716Z,77.74
2022-10-18T06:41:32.421Z,77.43
2022-10-18T06:46:53.498Z,77.48
2022-10-18T06:51:57.550Z,77.58
2022-10-18T06:57:02.548Z,77.71
2022-10-18T07:02:05.371Z,77.44
2022-10-18T07:07:09.480Z,77.40
2022-10-18T07:12:12.179Z,77.30
2022-10-18T07:17:15.063Z,77.32
2022-10-18T07:22:19.149Z,77.56
2022-10-18T07:27:21.820Z,77.82
2022-10-18T07:32:24.614Z,78.21
2022-10-18T07:37:30.203Z,78.59
2022-10-18T07:42:33.075Z,78.78
2022-10-18T07:47:35.978Z,78.62
2022-10-18T07:52:40.500Z,78.65
2022-10-18T07:57:43.183Z,78.39
2022-10-18T08:02:45.889Z,78.14
2022-10-18T08:07:50.018Z,77.91
2022-10-18T08:12:52.883Z,78.16
2022-10-18T08:17:55.563Z,77.96
2022-10-18T08:23:00.614Z,77.62
2022-10-18T08:28:03.511Z,77.49
2022-10-18T08:33:06.331Z,77.46
2022-10-18T08:38:16.472Z,77.47
2022-10-18T08:43:28.408Z,77.21
2022-10-18T08:48:36.738Z,77.11
2022-10-18T08:53:49.088Z,77.21
2022-10-18T08:58:52.082Z,77.23
2022-10-18T09:04:22.098Z,77.18
2022-10-18T09:09:34.582Z,77.10
2022-10-18T09:14:54.336Z,76.95
2022-10-18T09:20:07.314Z,77.20
2022-10-18T09:25:18.546Z,76.81
2022-10-18T09:30:30.387Z,76.83
2022-10-18T09:35:40.896Z,76.88
2022-10-18T09:40:52.251Z,76.80
2022-10-18T09:45:55.650Z,76.39
2022-10-18T09:51:00.145Z,76.24
2022-10-18T09:56:07.160Z,75.87
2022-10-18T10:01:11.599Z,75.40
2022-10-18T10:06:19.140Z,75.01
2022-10-18T10:11:35.637Z,74.97
2022-10-18T10:16:48.966Z,75.04
2022-10-18T10:21:53.344Z,74.73
2022-10-18T10:27:06.127Z,74.88
2022-10-18T10:32:13.774Z,74.75
2022-10-18T10:37:29.105Z,74.80
2022-10-18T10:42:34.486Z,74.31
2022-10-18T10:47:37.948Z,74.17
2022-10-18T10:52:41.448Z,73.98
2022-10-18T10:57:47.481Z,73.72
2022-10-18T11:02:59.418Z,73.87
2022-10-18T11:08:11.078Z,73.39
2022-10-18T11:13:25.132Z,73.26
2022-10-18T11:18:31.209Z,72.89
2022-10-18T11:23:34.809Z,72.81
2022-10-18T11:28:50.139Z,73.01
2022-10-18T11:34:09.193Z,72.98
2022-10-18T11:39:19.347Z,73.19
2022-10-18T11:44:28.399Z,73.61
2022-10-18T11:50:00.840Z,73.70
2022-10-18T11:55:13.726Z,73.93
2022-10-18T12:00:40.294Z,73.81
2022-10-18T12:05:44.939Z,73.38
2022-10-18T12:11:06.640Z,73.63
2022-10-18T12:16:11.910Z,73.87
2022-10-18T12:21:14.700Z,73.60
2022-10-18T12:26:18.284Z,73.91
2022-10-18T12:31:26.119Z,74.88
2022-10-18T12:36:48.860Z,75.55
2022-10-18T12:41:54.306Z,75.88
2022-10-18T12:46:59.478Z,76.24
2022-10-18T12:52:04.699Z,76.59
2022-10-18T12:57:22.918Z,76.69
2022-10-18T13:02:29.590Z,76.65
2022-10-18T13:07:42.994Z,76.58
2022-10-18T13:12:59.497Z,76.77
2022-10-18T13:18:09.735Z,76.54
2022-10-18T13:23:26.383Z,76.28
2022-10-18T13:28:33.832Z,76.06
2022-10-18T13:33:39.601Z,76.05
2022-10-18T13:38:48.410Z,75.78
2022-10-18T13:44:12.220Z,75.47
2022-10-18T13:49:28.972Z,75.48
2022-10-18T13:54:44.378Z,75.47
2022-10-18T14:00:05.508Z,75.27
2022-10-18T14:05:26.767Z,75.59
2022-10-18T14:10:50.133Z,75.36
2022-10-18T14:16:05.982Z,75.32
2022-10-18T14:21:16.837Z,75.36
2022-10-18T14:26:22.771Z,75.62
2022-10-18T14:31:25.528Z,75.56
2022-10-18T14:36:35.471Z,75.08
2022-10-18T14:41:41.134Z,74.68
2022-10-18T14:46:44.833Z,74.71
2022-10-18T14:51:52.030Z,74.54
2022-10-18T14:56:54.873Z,74.74
2022-10-18T15:01:59.320Z,74.65
2022-10-18T15:07:05.613Z,75.17
2022-10-18T15:12:08.559Z,75.62
2022-10-18T15:17:15.370Z,75.99
2022-10-18T15:22:32.456Z,76.30
2022-10-18T15:27:37.725Z,76.52
2022-10-18T15:32:48.765Z,76.81
2022-10-18T15:37:53.056Z,76.96
2022-10-18T15:42:57.042Z,77.06
2022-10-18T15:48:01.531Z,77.46
2022-10-18T15:53:25.373Z,77.55
2022-10-18T15:58:31.909Z,77.69
2022-10-18T16:03:35.854Z,77.85
2022-10-18T16:08:41.750Z,77.89
2022-10-18T16:13:45.086Z,78.21
2022-10-18T16:18:48.025Z,78.41
2022-10-18T16:23:52.081Z,78.24
2022-10-18T16:28:55.335Z,78.35
2022-10-18T16:33:58.743Z,78.30
2022-10-18T16:39:07.551Z,78.37
2022-10-18T16:44:10.215Z,78.49
2022-10-18T16:54:24.569Z,78.67
2022-10-18T16:59:28.766Z,78.69
2022-10-18T17:04:31.420Z,78.84
2022-10-18T17:09:36.875Z,78.90
2022-10-18T17:14:39.668Z,78.97
2022-10-18T17:19:42.340Z,79.03
2022-10-18T17:24:46.373Z,79.70
2022-10-18T17:29:49.070Z,83.81
2022-10-18T17:34:51.776Z,86.24
2022-10-18T17:39:55.869Z,86.75
2022-10-18T17:44:58.620Z,86.64
2022-10-18T17:50:01.307Z,86.34
2022-10-18T17:55:05.894Z,86.36
2022-10-18T18:00:11.565Z,86.11
2022-10-18T18:05:17.407Z,85.87
2022-10-18T18:10:21.495Z,85.61
2022-10-18T18:15:24.214Z,85.47
2022-10-18T18:20:27.217Z,85.06
2022-10-18T18:25:31.293Z,85.32
2022-10-18T18:30:33.982Z,84.95
2022-10-18T18:35:36.629Z,84.87
2022-10-18T18:40:40.678Z,84.67
2022-10-18T18:45:51.343Z,84.74
2022-10-18T18:50:54.136Z,84.48
2022-10-18T18:56:03.811Z,84.40
2022-10-18T19:01:08.740Z,84.27
2022-10-18T19:06:14.210Z,84.34
2022-10-18T19:11:20.808Z,84.19
2022-10-18T19:16:25.706Z,83.99
2022-10-18T19:21:31.007Z,83.99
2022-10-18T19:26:37.780Z,84.02
2022-10-18T19:31:40.855Z,83.98
2022-10-18T19:36:44.755Z,84.32
2022-10-18T19:41:49.477Z,84.60
2022-10-18T19:46:52.308Z,84.74
2022-10-18T19:51:55.016Z,84.93
2022-10-18T19:56:59.120Z,84.78
2022-10-18T20:02:01.894Z,84.53
2022-10-18T20:07:04.634Z,84.49
2022-10-18T20:12:08.732Z,84.43
2022-10-18T20:17:12.927Z,84.24
2022-10-18T20:22:15.743Z,84.20
2022-10-18T20:27:19.727Z,84.00
2022-10-18T20:32:22.397Z,83.97
2022-10-18T20:37:25.085Z,84.02
2022-10-18T20:42:29.130Z,83.98
2022-10-18T20:47:32.015Z,84.11
2022-10-18T20:52:35.027Z,83.89
2022-10-18T20:57:39.282Z,83.97
2022-10-18T21:02:42.082Z,83.96
2022-10-18T21:07:44.753Z,84.20
2022-10-18T21:12:49.557Z,84.19
2022-10-18T21:17:52.704Z,84.10
2022-10-18T21:22:57.337Z,84.09
2022-10-18T21:28:01.458Z,84.12
2022-10-18T21:33:04.484Z,84.09
2022-10-18T21:38:07.340Z,84.22
2022-10-18T21:43:11.530Z,83.78
2022-10-18T21:48:14.272Z,83.76
2022-10-18T21:53:17.113Z,83.66
2022-10-18T21:58:21.470Z,83.56
2022-10-18T22:03:24.198Z,83.69
2022-10-18T22:08:26.972Z,83.72
2022-10-18T22:13:31.114Z,83.46
2022-10-18T22:18:34.727Z,83.73
2022-10-18T22:23:39.177Z,83.67
2022-10-18T22:28:44.506Z,83.62
2022-10-18T22:33:48.055Z,83.63
2022-10-18T22:38:51.074Z,83.52
2022-10-18T22:43:57.344Z,83.55
2022-10-18T22:49:02.407Z,83.53
2022-10-18T22:54:05.226Z,83.49
2022-10-18T22:59:09.512Z,83.39
2022-10-18T23:04:12.188Z,83.54
2022-10-18T23:09:14.939Z,83.45
2022-10-18T23:14:19.103Z,83.35
2022-10-18T23:19:21.794Z,83.17
2022-10-18T23:24:24.476Z,83.16
2022-10-18T23:29:28.761Z,83.24
2022-10-18T23:34:31.518Z,83.14
2022-10-18T23:39:34.266Z,82.91
2022-10-18T23:44:38.330Z,82.93
2022-10-18T23:49:41.068Z,83.16
2022-10-18T23:59:48.699Z,82.94
